Time;durP1;ratioP1;P1;durP2;ratioP2;P2;SDS_P1;SDS_P2;PMS_P1;PMS_P2;Temp;Humidity;BMP_temperature;BMP_pressure;BME280_temperature;BME280_humidity;BME280_pressure;Samples;Min_cycle;Max_cycle;Signal;HPM_P1;HPM_P2
2022/03/31 00:00:46;;;;;;;9.10;8.02;;;;;;;;;;5074183;28;20193;-81
2022/03/31 00:03:16;;;;;;;10.75;9.65;;;;;;;;;;5073469;28;20201;-81
2022/03/31 00:05:44;;;;;;;10.27;9.13;;;;;;;;;;5073555;28;20204;-81
2022/03/31 00:08:14;;;;;;;11.05;9.70;;;;;;;;;;5073404;28;20665;-81
2022/03/31 00:10:43;;;;;;;12.18;9.45;;;;;;;;;;5073470;28;20209;-81
2022/03/31 00:13:13;;;;;;;11.38;9.73;;;;;;;;;;5073419;28;20300;-80
2022/03/31 00:15:42;;;;;;;9.80;8.85;;;;;;;;;;5073990;28;20227;-81
2022/03/31 00:18:12;;;;;;;10.00;8.60;;;;;;;;;;5073374;28;20224;-81
2022/03/31 00:20:39;;;;;;;11.80;10.60;;;;;;;;;;5073207;28;20197;-80
2022/03/31 00:23:07;;;;;;;9.88;8.88;;;;;;;;;;5073038;28;20204;-80
2022/03/31 00:25:35;;;;;;;12.20;10.55;;;;;;;;;;5073341;28;20193;-81
2022/03/31 00:28:03;;;;;;;12.20;9.60;;;;;;;;;;5073185;28;20238;-80
2022/03/31 00:30:31;;;;;;;9.38;8.35;;;;;;;;;;5072978;28;20219;-80
2022/03/31 00:33:00;;;;;;;14.88;10.32;;;;;;;;;;5072207;28;20240;-81
2022/03/31 00:35:28;;;;;;;13.77;9.60;;;;;;;;;;5075919;28;20196;-80
2022/03/31 00:37:56;;;;;;;12.45;9.98;;;;;;;;;;5076940;28;20209;-80
2022/03/31 00:40:25;;;;;;;12.30;10.57;;;;;;;;;;5077874;28;20205;-81
2022/03/31 00:42:55;;;;;;;12.07;9.52;;;;;;;;;;5076058;28;20197;-81
2022/03/31 00:45:25;;;;;;;11.68;9.55;;;;;;;;;;5073684;28;20212;-81
2022/03/31 00:47:54;;;;;;;9.88;8.30;;;;;;;;;;5073610;28;20254;-80
2022/03/31 00:50:23;;;;;;;9.48;8.48;;;;;;;;;;5072809;28;20205;-81
2022/03/31 00:52:51;;;;;;;9.88;8.75;;;;;;;;;;5073056;28;20592;-80
2022/03/31 00:55:19;;;;;;;11.80;8.88;;;;;;;;;;5072970;28;20212;-80
2022/03/31 00:57:47;;;;;;;7.82;7.03;;;;;;;;;;5073068;28;20232;-80
2022/03/31 01:00:16;;;;;;;12.45;8.65;;;;;;;;;;5073048;28;20204;-81
2022/03/31 01:02:45;;;;;;;9.88;8.23;;;;;;;;;;5072759;28;20226;-80
2022/03/31 01:05:14;;;;;;;11.68;8.15;;;;;;;;;;5073291;28;20280;-80
2022/03/31 01:07:43;;;;;;;8.15;7.35;;;;;;;;;;5072889;28;20251;-81
2022/03/31 01:10:13;;;;;;;10.15;7.55;;;;;;;;;;5072800;28;20274;-80
2022/03/31 01:12:40;;;;;;;8.90;6.55;;;;;;;;;;5072443;28;20699;-81
2022/03/31 01:15:11;;;;;;;8.60;7.80;;;;;;;;;;5072517;28;20201;-80
2022/03/31 01:17:40;;;;;;;7.65;6.88;;;;;;;;;;5073174;28;20205;-81
2022/03/31 01:20:11;;;;;;;10.20;6.60;;;;;;;;;;5072656;28;20737;-80
2022/03/31 01:22:38;;;;;;;7.25;6.55;;;;;;;;;;5072856;28;20205;-81
2022/03/31 01:25:09;;;;;;;6.47;5.65;;;;;;;;;;5072786;28;20197;-80
2022/03/31 01:27:39;;;;;;;6.60;5.97;;;;;;;;;;5072641;28;20208;-80
2022/03/31 01:30:09;;;;;;;6.22;5.55;;;;;;;;;;5072805;28;20225;-80
2022/03/31 01:32:36;;;;;;;7.95;6.60;;;;;;;;;;5072666;28;20583;-80
2022/03/31 01:35:04;;;;;;;9.13;7.32;;;;;;;;;;5072621;28;20212;-81
2022/03/31 01:37:32;;;;;;;8.20;7.40;;;;;;;;;;5072864;28;20204;-81
2022/03/31 01:39:59;;;;;;;8.68;7.45;;;;;;;;;;5072086;28;20224;-81
2022/03/31 01:42:28;;;;;;;8.05;6.93;;;;;;;;;;5072152;28;20205;-80
2022/03/31 01:44:56;;;;;;;8.35;7.55;;;;;;;;;;5076270;28;20201;-80
2022/03/31 01:47:23;;;;;;;9.20;7.07;;;;;;;;;;5076501;28;20600;-81
2022/03/31 01:49:50;;;;;;;9.05;6.55;;;;;;;;;;5076345;28;20224;-80
2022/03/31 01:52:18;;;;;;;6.65;5.95;;;;;;;;;;5076351;28;20205;-81
2022/03/31 01:54:45;;;;;;;7.60;6.72;;;;;;;;;;5076191;28;20256;-81
2022/03/31 01:57:13;;;;;;;5.97;4.90;;;;;;;;;;5076588;28;20258;-80
2022/03/31 01:59:43;;;;;;;6.93;5.85;;;;;;;;;;5076520;28;20225;-80
2022/03/31 02:02:13;;;;;;;7.28;5.65;;;;;;;;;;5075483;28;20230;-80
2022/03/31 02:04:41;;;;;;;5.68;5.05;;;;;;;;;;5076232;28;20197;-80
2022/03/31 02:07:09;;;;;;;7.68;6.18;;;;;;;;;;5076037;28;20296;-80
2022/03/31 02:09:36;;;;;;;5.78;5.15;;;;;;;;;;5075789;28;20235;-80
2022/03/31 02:12:05;;;;;;;7.65;5.47;;;;;;;;;;5075295;28;20205;-80
2022/03/31 02:14:37;;;;;;;5.95;5.22;;;;;;;;;;5074840;28;20291;-80
2022/03/31 02:17:06;;;;;;;6.40;5.38;;;;;;;;;;5075497;28;20201;-80
2022/03/31 02:19:33;;;;;;;13.88;7.18;;;;;;;;;;5076291;28;20224;-80
2022/03/31 02:22:01;;;;;;;6.82;6.13;;;;;;;;;;5076510;28;20734;-81
2022/03/31 02:24:29;;;;;;;6.50;5.90;;;;;;;;;;5077107;28;20204;-80
2022/03/31 02:26:57;;;;;;;6.97;6.28;;;;;;;;;;5075369;28;20205;-80
2022/03/31 02:29:25;;;;;;;6.57;5.70;;;;;;;;;;5075500;28;20267;-80
2022/03/31 02:31:52;;;;;;;7.85;6.60;;;;;;;;;;5075180;28;20224;-80
2022/03/31 02:34:21;;;;;;;10.00;7.47;;;;;;;;;;5075491;28;20228;-81
2022/03/31 02:36:49;;;;;;;9.80;6.78;;;;;;;;;;5075173;28;20205;-80
2022/03/31 02:39:16;;;;;;;7.72;6.93;;;;;;;;;;5075586;28;20304;-81
2022/03/31 02:41:43;;;;;;;6.75;6.05;;;;;;;;;;5075276;28;20246;-81
2022/03/31 02:44:11;;;;;;;6.63;5.68;;;;;;;;;;5075252;28;20201;-81
2022/03/31 02:46:39;;;;;;;6.78;6.18;;;;;;;;;;5074907;28;20197;-81
2022/03/31 02:49:06;;;;;;;7.72;6.18;;;;;;;;;;5075067;28;20225;-81
2022/03/31 02:51:35;;;;;;;7.93;6.53;;;;;;;;;;5075180;28;20197;-81
2022/03/31 02:56:48;;;;;;;6.18;5.57;;;;;;;;;;5074292;28;20330;-81
2022/03/31 02:59:15;;;;;;;5.82;5.28;;;;;;;;;;5074627;28;20248;-81
2022/03/31 03:01:43;;;;;;;6.68;5.97;;;;;;;;;;5074439;28;20200;-81
2022/03/31 03:04:11;;;;;;;6.45;5.80;;;;;;;;;;5075186;28;20201;-81
2022/03/31 03:06:40;;;;;;;6.95;6.28;;;;;;;;;;5074877;28;20216;-80
2022/03/31 03:09:08;;;;;;;7.65;6.65;;;;;;;;;;5074695;28;20228;-80
2022/03/31 03:11:36;;;;;;;8.02;7.25;;;;;;;;;;5074533;28;20205;-80
2022/03/31 03:14:04;;;;;;;7.88;6.65;;;;;;;;;;5074634;28;20221;-80
2022/03/31 03:16:31;;;;;;;9.85;8.15;;;;;;;;;;5074916;28;20205;-80
2022/03/31 03:18:59;;;;;;;9.98;8.55;;;;;;;;;;5075065;28;20221;-80
2022/03/31 03:21:26;;;;;;;9.23;8.20;;;;;;;;;;5074662;28;20683;-80
2022/03/31 03:23:55;;;;;;;8.73;7.65;;;;;;;;;;5074519;28;20649;-80
2022/03/31 03:26:22;;;;;;;9.40;7.10;;;;;;;;;;5074290;28;20209;-80
2022/03/31 03:28:50;;;;;;;10.68;9.27;;;;;;;;;;5074748;28;20274;-81
2022/03/31 03:31:17;;;;;;;9.40;7.80;;;;;;;;;;5081652;28;20208;-80
2022/03/31 03:33:44;;;;;;;10.93;8.48;;;;;;;;;;5082054;28;20197;-79
2022/03/31 03:36:12;;;;;;;7.07;6.13;;;;;;;;;;5082187;28;20297;-80
2022/03/31 03:38:40;;;;;;;8.35;6.90;;;;;;;;;;5082518;28;20224;-80
2022/03/31 03:41:10;;;;;;;9.00;7.18;;;;;;;;;;5079824;28;20240;-81
2022/03/31 03:43:38;;;;;;;8.60;7.35;;;;;;;;;;5074650;28;20197;-81
2022/03/31 03:46:05;;;;;;;9.30;7.90;;;;;;;;;;5074680;28;20209;-81
2022/03/31 03:48:33;;;;;;;7.47;6.78;;;;;;;;;;5073940;28;20247;-81
2022/03/31 03:51:00;;;;;;;6.97;6.00;;;;;;;;;;5074455;28;20205;-81
2022/03/31 03:53:28;;;;;;;6.28;5.68;;;;;;;;;;5073877;28;20595;-81
2022/03/31 03:55:55;;;;;;;7.55;6.50;;;;;;;;;;5073641;28;20217;-82
2022/03/31 03:58:24;;;;;;;7.90;7.10;;;;;;;;;;5073833;28;20240;-81
2022/03/31 04:00:53;;;;;;;7.35;6.57;;;;;;;;;;5073882;28;20197;-81
2022/03/31 04:03:20;;;;;;;6.55;5.88;;;;;;;;;;5073918;28;20233;-81
2022/03/31 04:05:47;;;;;;;6.15;5.30;;;;;;;;;;5073635;28;20203;-81
2022/03/31 04:08:15;;;;;;;6.40;5.63;;;;;;;;;;5078570;28;20228;-81
2022/03/31 04:10:42;;;;;;;6.40;5.80;;;;;;;;;;5074023;28;20673;-81
2022/03/31 04:13:11;;;;;;;7.15;6.40;;;;;;;;;;5073417;28;20211;-81
2022/03/31 04:15:40;;;;;;;9.40;7.35;;;;;;;;;;5073588;28;20265;-81
2022/03/31 04:18:08;;;;;;;7.13;6.40;;;;;;;;;;5073315;28;20224;-80
2022/03/31 04:20:35;;;;;;;7.07;6.28;;;;;;;;;;5073664;28;20288;-81
2022/03/31 04:23:03;;;;;;;7.78;6.97;;;;;;;;;;5073242;28;20201;-81
2022/03/31 04:25:30;;;;;;;7.90;7.15;;;;;;;;;;5073709;28;20193;-81
2022/03/31 04:27:57;;;;;;;10.48;7.97;;;;;;;;;;5073079;28;20262;-80
2022/03/31 04:30:26;;;;;;;11.40;9.65;;;;;;;;;;5073174;28;20656;-81
2022/03/31 04:32:54;;;;;;;8.45;7.72;;;;;;;;;;5072993;28;20251;-81
2022/03/31 04:35:22;;;;;;;10.85;9.25;;;;;;;;;;5073742;28;20221;-81
2022/03/31 04:37:49;;;;;;;9.45;8.55;;;;;;;;;;5072580;28;20556;-81
2022/03/31 04:40:16;;;;;;;9.25;8.35;;;;;;;;;;5073493;28;20207;-81
2022/03/31 04:42:44;;;;;;;11.27;8.80;;;;;;;;;;5072659;28;20274;-81
2022/03/31 04:45:12;;;;;;;10.60;8.48;;;;;;;;;;5073014;28;20196;-81
2022/03/31 04:47:39;;;;;;;11.07;9.73;;;;;;;;;;5075315;28;20205;-81
2022/03/31 04:50:09;;;;;;;11.07;9.77;;;;;;;;;;5076932;28;20221;-81
2022/03/31 04:52:36;;;;;;;11.85;8.20;;;;;;;;;;5077562;28;20205;-81
2022/03/31 04:55:04;;;;;;;9.82;8.90;;;;;;;;;;5076015;28;20225;-81
2022/03/31 04:57:31;;;;;;;8.43;7.63;;;;;;;;;;5072615;28;20205;-80
2022/03/31 04:59:58;;;;;;;11.70;10.18;;;;;;;;;;5072759;28;20220;-80
2022/03/31 05:02:26;;;;;;;10.25;9.25;;;;;;;;;;5073138;28;20205;-81
2022/03/31 05:04:53;;;;;;;9.57;8.15;;;;;;;;;;5072772;28;20201;-81
2022/03/31 05:07:22;;;;;;;9.27;8.43;;;;;;;;;;5073259;28;20208;-81
2022/03/31 05:09:49;;;;;;;7.90;7.10;;;;;;;;;;5072671;28;20232;-81
2022/03/31 05:12:16;;;;;;;9.82;8.18;;;;;;;;;;5072806;28;20196;-81
2022/03/31 05:14:44;;;;;;;8.25;7.30;;;;;;;;;;5072761;28;20208;-81
2022/03/31 05:17:11;;;;;;;7.35;6.60;;;;;;;;;;5072366;28;20255;-76
2022/03/31 05:19:39;;;;;;;7.60;6.78;;;;;;;;;;5071028;28;20356;-76
2022/03/31 05:22:06;;;;;;;8.45;7.18;;;;;;;;;;5071238;28;20228;-76
2022/03/31 05:24:35;;;;;;;8.43;7.47;;;;;;;;;;5071780;28;20258;-76
2022/03/31 05:27:02;;;;;;;8.57;7.78;;;;;;;;;;5079595;28;20265;-76
2022/03/31 05:29:29;;;;;;;10.57;9.20;;;;;;;;;;5087846;28;20216;-76
2022/03/31 05:31:57;;;;;;;8.75;7.65;;;;;;;;;;5078756;28;20205;-76
2022/03/31 05:34:25;;;;;;;11.00;9.55;;;;;;;;;;5072625;28;20219;-76
2022/03/31 05:36:52;;;;;;;10.32;8.73;;;;;;;;;;5071868;28;20224;-76
2022/03/31 05:39:20;;;;;;;13.30;11.85;;;;;;;;;;5071348;28;20654;-76
2022/03/31 05:41:48;;;;;;;13.68;11.60;;;;;;;;;;5071605;28;20227;-75
2022/03/31 05:44:15;;;;;;;13.57;11.93;;;;;;;;;;5071394;28;20734;-76
2022/03/31 05:46:44;;;;;;;13.48;10.30;;;;;;;;;;5071614;28;20258;-75
2022/03/31 05:49:11;;;;;;;13.45;11.32;;;;;;;;;;5071211;28;20926;-75
2022/03/31 05:51:39;;;;;;;16.70;12.77;;;;;;;;;;5071732;28;20205;-75
2022/03/31 05:54:06;;;;;;;17.35;12.73;;;;;;;;;;5071429;28;20213;-76
2022/03/31 05:56:34;;;;;;;15.43;12.35;;;;;;;;;;5071278;28;20225;-76
2022/03/31 05:59:02;;;;;;;17.70;13.98;;;;;;;;;;5089479;28;20235;-75
2022/03/31 06:01:30;;;;;;;14.23;12.30;;;;;;;;;;5090622;28;20340;-76
2022/03/31 06:03:57;;;;;;;14.07;11.73;;;;;;;;;;5090771;28;20286;-75
2022/03/31 06:06:24;;;;;;;16.40;12.88;;;;;;;;;;5090881;28;20656;-76
2022/03/31 06:08:52;;;;;;;16.90;13.32;;;;;;;;;;5090789;28;20236;-75
2022/03/31 06:11:19;;;;;;;15.02;12.73;;;;;;;;;;5090791;28;20765;-77
2022/03/31 06:13:47;;;;;;;14.98;11.85;;;;;;;;;;5090472;28;20208;-75
2022/03/31 06:16:15;;;;;;;14.48;12.45;;;;;;;;;;5090764;28;20239;-76
2022/03/31 06:18:43;;;;;;;16.77;14.50;;;;;;;;;;5091043;28;20224;-75
2022/03/31 06:21:11;;;;;;;15.80;13.52;;;;;;;;;;5085449;28;20208;-76
2022/03/31 06:23:38;;;;;;;16.15;12.57;;;;;;;;;;5070765;28;20205;-76
2022/03/31 06:26:06;;;;;;;19.52;15.13;;;;;;;;;;5071246;28;20201;-77
2022/03/31 06:28:34;;;;;;;18.13;14.57;;;;;;;;;;5089806;28;20304;-76
2022/03/31 06:31:01;;;;;;;20.75;15.32;;;;;;;;;;5092495;28;20216;-76
2022/03/31 06:33:30;;;;;;;21.35;15.77;;;;;;;;;;5094254;28;20211;-75
2022/03/31 06:35:57;;;;;;;19.45;15.73;;;;;;;;;;5094278;28;20209;-77
2022/03/31 06:38:24;;;;;;;20.30;15.25;;;;;;;;;;5093587;28;20232;-75
2022/03/31 06:43:33;;;;;;;25.02;16.13;;;;;;;;;;5074289;28;20211;-75
2022/03/31 06:46:00;;;;;;;22.60;18.23;;;;;;;;;;5074363;28;20216;-76
2022/03/31 06:48:30;;;;;;;21.25;16.92;;;;;;;;;;5074738;28;20229;-76
2022/03/31 06:50:58;;;;;;;22.10;17.45;;;;;;;;;;5074469;28;20288;-76
2022/03/31 06:53:26;;;;;;;22.80;17.10;;;;;;;;;;5074336;28;20209;-76
2022/03/31 06:55:54;;;;;;;20.27;16.75;;;;;;;;;;5074227;28;20661;-76
2022/03/31 06:58:25;;;;;;;21.65;17.80;;;;;;;;;;5087652;28;20232;-76
2022/03/31 07:00:53;;;;;;;19.38;16.75;;;;;;;;;;5093233;28;20716;-76
2022/03/31 07:03:20;;;;;;;24.40;18.00;;;;;;;;;;5093506;28;20679;-76
2022/03/31 07:05:48;;;;;;;24.13;17.35;;;;;;;;;;5093446;28;20262;-76
2022/03/31 07:08:16;;;;;;;25.75;19.13;;;;;;;;;;5093355;28;20224;-76
2022/03/31 07:10:44;;;;;;;22.60;17.63;;;;;;;;;;5093281;28;20258;-76
2022/03/31 07:13:11;;;;;;;24.42;18.88;;;;;;;;;;5093445;28;20292;-76
2022/03/31 07:15:39;;;;;;;24.90;19.30;;;;;;;;;;5093376;28;20273;-76
2022/03/31 07:18:07;;;;;;;21.92;16.50;;;;;;;;;;5093255;28;20239;-76
2022/03/31 07:20:36;;;;;;;27.08;18.80;;;;;;;;;;5092748;28;20203;-76
2022/03/31 07:23:06;;;;;;;22.17;17.98;;;;;;;;;;5073824;28;20215;-76
2022/03/31 07:25:33;;;;;;;23.92;19.45;;;;;;;;;;5073942;28;20209;-76
2022/03/31 07:28:01;;;;;;;23.90;18.65;;;;;;;;;;5088612;28;20211;-76
2022/03/31 07:30:28;;;;;;;20.55;16.35;;;;;;;;;;5092865;28;20204;-75
2022/03/31 07:32:58;;;;;;;25.75;18.17;;;;;;;;;;5093180;28;20208;-76
2022/03/31 07:35:29;;;;;;;23.90;17.55;;;;;;;;;;5092935;28;20231;-76
2022/03/31 07:37:57;;;;;;;23.00;16.23;;;;;;;;;;5094130;28;20726;-76
2022/03/31 07:40:27;;;;;;;22.15;16.52;;;;;;;;;;5092694;28;20204;-77
2022/03/31 07:42:55;;;;;;;21.98;16.42;;;;;;;;;;5092994;28;20626;-77
2022/03/31 07:45:24;;;;;;;22.27;16.13;;;;;;;;;;5092796;28;20204;-76
2022/03/31 07:47:51;;;;;;;22.42;16.98;;;;;;;;;;5093295;28;20208;-77
2022/03/31 07:50:20;;;;;;;26.02;16.98;;;;;;;;;;5092803;28;20266;-78
2022/03/31 07:52:47;;;;;;;24.15;19.05;;;;;;;;;;5093207;28;20228;-76
2022/03/31 07:55:17;;;;;;;24.45;18.65;;;;;;;;;;5092836;28;20231;-76
2022/03/31 07:57:47;;;;;;;25.92;20.17;;;;;;;;;;5080545;28;20225;-77
2022/03/31 08:00:16;;;;;;;28.75;20.20;;;;;;;;;;5073119;28;20685;-76
2022/03/31 08:02:48;;;;;;;23.35;18.55;;;;;;;;;;5073248;28;20595;-76
2022/03/31 08:05:18;;;;;;;23.55;17.55;;;;;;;;;;5073196;28;20205;-76
2022/03/31 08:07:46;;;;;;;24.65;17.02;;;;;;;;;;5073339;28;20209;-76
2022/03/31 08:10:14;;;;;;;22.85;16.67;;;;;;;;;;5072520;28;20266;-76
2022/03/31 08:12:42;;;;;;;23.52;17.20;;;;;;;;;;5072799;28;20707;-76
2022/03/31 08:15:14;;;;;;;24.95;19.13;;;;;;;;;;5074034;28;20209;-76
2022/03/31 08:17:41;;;;;;;22.23;17.88;;;;;;;;;;5084537;28;20586;-76
2022/03/31 08:20:10;;;;;;;22.95;15.68;;;;;;;;;;5081168;28;20642;-76
2022/03/31 08:22:39;;;;;;;21.65;16.05;;;;;;;;;;5073452;28;20216;-75
2022/03/31 08:25:07;;;;;;;25.02;19.95;;;;;;;;;;5072983;28;20296;-76
2022/03/31 08:27:35;;;;;;;27.48;17.80;;;;;;;;;;5077768;28;20204;-76
2022/03/31 08:30:03;;;;;;;26.70;17.83;;;;;;;;;;5092059;28;20773;-76
2022/03/31 08:32:35;;;;;;;23.17;16.48;;;;;;;;;;5091651;28;20661;-75
2022/03/31 08:35:03;;;;;;;19.48;14.85;;;;;;;;;;5091893;28;20254;-76
2022/03/31 08:37:30;;;;;;;20.17;14.70;;;;;;;;;;5091752;28;20228;-76
2022/03/31 08:39:57;;;;;;;19.65;15.45;;;;;;;;;;5091724;28;20228;-76
2022/03/31 08:42:25;;;;;;;24.10;19.10;;;;;;;;;;5091306;28;20265;-76
2022/03/31 08:44:54;;;;;;;23.90;19.35;;;;;;;;;;5091882;28;20688;-76
2022/03/31 08:47:21;;;;;;;23.02;17.40;;;;;;;;;;5091675;28;20208;-75
2022/03/31 08:49:50;;;;;;;23.08;16.95;;;;;;;;;;5091532;28;20224;-75
2022/03/31 08:52:17;;;;;;;24.50;18.70;;;;;;;;;;5091036;28;20212;-76
2022/03/31 08:54:45;;;;;;;20.50;16.52;;;;;;;;;;5090838;28;20200;-76
2022/03/31 08:57:12;;;;;;;21.42;17.48;;;;;;;;;;5083504;28;20200;-76
2022/03/31 08:59:39;;;;;;;24.67;16.73;;;;;;;;;;5072228;28;20225;-75
2022/03/31 09:02:07;;;;;;;20.63;15.63;;;;;;;;;;5071708;28;20250;-75
2022/03/31 09:04:34;;;;;;;23.15;17.77;;;;;;;;;;5072302;28;20251;-76
2022/03/31 09:07:08;;;;;;;21.98;15.98;;;;;;;;;;5071827;28;20576;-77
2022/03/31 09:09:45;;;;;;;19.83;14.98;;;;;;;;;;5072011;28;20232;-77
2022/03/31 09:12:13;;;;;;;19.85;15.27;;;;;;;;;;5072180;28;20213;-77
2022/03/31 09:14:41;;;;;;;21.42;16.90;;;;;;;;;;5072247;28;20211;-77
2022/03/31 09:17:13;;;;;;;20.92;16.08;;;;;;;;;;5071911;28;20197;-76
2022/03/31 09:19:40;;;;;;;21.73;17.20;;;;;;;;;;5071896;28;20232;-76
2022/03/31 09:22:09;;;;;;;22.08;16.52;;;;;;;;;;5073119;28;20208;-76
2022/03/31 09:24:37;;;;;;;21.42;15.38;;;;;;;;;;5072078;28;20208;-76
2022/03/31 09:27:06;;;;;;;18.23;14.20;;;;;;;;;;5077601;28;20218;-76
2022/03/31 09:29:35;;;;;;;21.42;16.80;;;;;;;;;;5072168;28;20235;-76
2022/03/31 09:32:11;;;;;;;18.50;15.48;;;;;;;;;;5072029;28;20211;-76
2022/03/31 09:34:43;;;;;;;21.60;15.95;;;;;;;;;;5072320;28;20209;-77
2022/03/31 09:37:12;;;;;;;19.52;15.50;;;;;;;;;;5072016;28;20211;-77
2022/03/31 09:39:40;;;;;;;22.48;16.85;;;;;;;;;;5072329;28;20232;-77
2022/03/31 09:42:12;;;;;;;16.13;14.00;;;;;;;;;;5072007;28;20201;-77
2022/03/31 09:44:42;;;;;;;18.13;16.05;;;;;;;;;;5072239;28;20731;-77
2022/03/31 09:47:09;;;;;;;19.77;15.52;;;;;;;;;;5071810;28;20288;-77
2022/03/31 09:49:36;;;;;;;20.95;17.92;;;;;;;;;;5071963;28;20221;-77
2022/03/31 09:52:07;;;;;;;17.55;14.60;;;;;;;;;;5071467;28;20611;-77
2022/03/31 09:54:37;;;;;;;18.33;15.63;;;;;;;;;;5071963;28;20236;-77
2022/03/31 09:57:07;;;;;;;20.70;15.07;;;;;;;;;;5077457;28;20265;-77
2022/03/31 09:59:38;;;;;;;20.52;16.05;;;;;;;;;;5091315;28;20231;-77
2022/03/31 10:02:06;;;;;;;17.05;13.48;;;;;;;;;;5090986;28;20294;-77
2022/03/31 10:04:34;;;;;;;17.70;14.35;;;;;;;;;;5092763;28;20208;-77
2022/03/31 10:07:03;;;;;;;18.30;14.98;;;;;;;;;;5075047;28;20204;-77
2022/03/31 10:09:32;;;;;;;16.98;12.82;;;;;;;;;;5075501;28;20290;-77
2022/03/31 10:12:09;;;;;;;13.73;10.88;;;;;;;;;;5075335;28;20254;-78
2022/03/31 10:14:44;;;;;;;13.93;11.02;;;;;;;;;;5075930;28;20292;-77
2022/03/31 10:17:12;;;;;;;12.65;10.63;;;;;;;;;;5074874;28;20224;-77
2022/03/31 10:19:41;;;;;;;13.07;11.73;;;;;;;;;;5074868;28;20687;-77
2022/03/31 10:24:41;;;;;;;11.80;10.60;;;;;;;;;;5076454;28;20334;-77
2022/03/31 10:25:00;;;;;;;14.15;10.60;;;;;;;;;;5075331;28;20215;-77
2022/03/31 10:27:31;;;;;;;14.50;11.02;;;;;;;;;;5079528;28;20215;-76
2022/03/31 10:30:11;;;;;;;13.68;11.35;;;;;;;;;;5075570;28;20316;-77
2022/03/31 10:32:38;;;;;;;13.75;11.50;;;;;;;;;;5075358;28;20212;-78
2022/03/31 10:35:07;;;;;;;12.32;11.02;;;;;;;;;;5075505;28;20292;-77
2022/03/31 10:37:37;;;;;;;13.27;11.90;;;;;;;;;;5074620;28;20209;-76
2022/03/31 10:40:06;;;;;;;13.70;11.82;;;;;;;;;;5075170;28;20307;-77
2022/03/31 10:42:35;;;;;;;13.85;11.82;;;;;;;;;;5075717;28;20270;-79
2022/03/31 10:45:12;;;;;;;13.50;10.85;;;;;;;;;;5083073;28;20212;-77
2022/03/31 10:47:41;;;;;;;16.08;14.40;;;;;;;;;;5096688;28;20212;-77
2022/03/31 10:50:11;;;;;;;19.48;14.77;;;;;;;;;;5093911;28;20704;-77
2022/03/31 10:52:38;;;;;;;20.73;16.95;;;;;;;;;;5077788;28;20205;-77
2022/03/31 10:55:09;;;;;;;19.83;17.50;;;;;;;;;;5085940;28;20290;-77
2022/03/31 10:57:44;;;;;;;23.23;17.33;;;;;;;;;;5082838;28;20243;-77
2022/03/31 11:00:15;;;;;;;17.17;14.13;;;;;;;;;;5074603;28;20223;-77
2022/03/31 11:02:45;;;;;;;17.70;13.70;;;;;;;;;;5074437;28;20297;-77
2022/03/31 11:05:13;;;;;;;19.23;15.32;;;;;;;;;;5074795;28;20216;-77
2022/03/31 11:07:40;;;;;;;19.38;17.27;;;;;;;;;;5074555;28;20691;-77
2022/03/31 11:10:11;;;;;;;19.90;15.55;;;;;;;;;;5074151;28;20500;-77
2022/03/31 11:12:41;;;;;;;18.95;13.57;;;;;;;;;;5074393;28;20299;-77
2022/03/31 11:15:11;;;;;;;16.90;13.15;;;;;;;;;;5094081;28;20223;-79
2022/03/31 11:17:41;;;;;;;15.23;12.55;;;;;;;;;;5073122;28;20609;-76
2022/03/31 11:20:20;;;;;;;14.73;12.43;;;;;;;;;;5074105;28;20711;-78
2022/03/31 11:22:49;;;;;;;13.38;11.10;;;;;;;;;;5074869;28;20653;-77
2022/03/31 11:25:18;;;;;;;14.32;12.70;;;;;;;;;;5074690;28;20205;-77
2022/03/31 11:27:48;;;;;;;14.75;13.23;;;;;;;;;;5076854;28;20201;-77
2022/03/31 11:30:18;;;;;;;15.73;12.90;;;;;;;;;;5073708;28;20217;-77
2022/03/31 11:32:48;;;;;;;15.48;13.40;;;;;;;;;;5073978;28;20704;-77
2022/03/31 11:35:17;;;;;;;16.65;14.82;;;;;;;;;;5074036;28;20209;-77
2022/03/31 11:37:49;;;;;;;14.80;12.57;;;;;;;;;;5074178;28;20266;-77
2022/03/31 11:40:22;;;;;;;17.67;15.15;;;;;;;;;;5074157;28;20257;-77
2022/03/31 11:42:52;;;;;;;18.70;15.27;;;;;;;;;;5073849;28;20212;-77
2022/03/31 11:45:29;;;;;;;17.63;15.75;;;;;;;;;;5074018;28;20286;-77
2022/03/31 11:47:58;;;;;;;16.95;12.85;;;;;;;;;;5073856;28;20586;-77
2022/03/31 11:50:27;;;;;;;15.85;13.20;;;;;;;;;;5073832;28;20205;-77
2022/03/31 11:52:55;;;;;;;15.80;14.10;;;;;;;;;;5073412;28;20808;-77
2022/03/31 11:55:23;;;;;;;13.32;11.93;;;;;;;;;;5073664;28;20201;-77
2022/03/31 11:57:57;;;;;;;15.90;13.55;;;;;;;;;;5086556;28;20204;-77
2022/03/31 12:00:27;;;;;;;13.95;12.32;;;;;;;;;;5093072;28;20270;-77
2022/03/31 12:03:03;;;;;;;14.60;12.65;;;;;;;;;;5093258;28;20211;-77
2022/03/31 12:05:31;;;;;;;13.90;12.00;;;;;;;;;;5092899;28;20656;-77
2022/03/31 12:08:01;;;;;;;14.52;12.65;;;;;;;;;;5091100;28;20207;-77
2022/03/31 12:10:29;;;;;;;13.95;12.55;;;;;;;;;;5082231;28;20572;-77
2022/03/31 12:13:00;;;;;;;14.18;12.27;;;;;;;;;;5092558;28;20212;-77
2022/03/31 12:15:31;;;;;;;16.60;13.70;;;;;;;;;;5092365;28;20672;-77
2022/03/31 12:18:05;;;;;;;15.52;12.70;;;;;;;;;;5092973;28;20219;-77
2022/03/31 12:20:34;;;;;;;14.93;13.43;;;;;;;;;;5092443;28;20218;-76
2022/03/31 12:23:02;;;;;;;14.30;12.68;;;;;;;;;;5074937;28;20231;-76
2022/03/31 12:25:38;;;;;;;16.38;14.20;;;;;;;;;;5072841;28;20211;-76
2022/03/31 12:28:08;;;;;;;14.30;12.38;;;;;;;;;;5083611;28;20204;-77
2022/03/31 12:30:47;;;;;;;13.50;11.63;;;;;;;;;;5092379;28;20204;-76
2022/03/31 12:33:26;;;;;;;15.73;13.63;;;;;;;;;;5092329;28;20211;-78
2022/03/31 12:36:01;;;;;;;15.15;11.60;;;;;;;;;;5092412;28;20262;-77
2022/03/31 12:38:37;;;;;;;12.68;10.93;;;;;;;;;;5092365;28;20223;-77
2022/03/31 12:41:14;;;;;;;16.73;12.75;;;;;;;;;;5092043;28;20314;-76
2022/03/31 12:43:44;;;;;;;11.02;9.57;;;;;;;;;;5092315;28;20602;-76
2022/03/31 12:46:17;;;;;;;14.05;11.70;;;;;;;;;;5091363;28;20257;-77
2022/03/31 12:48:56;;;;;;;14.10;12.07;;;;;;;;;;5072428;28;20675;-79
2022/03/31 12:51:24;;;;;;;16.08;13.00;;;;;;;;;;5072735;28;20559;-77
2022/03/31 12:53:52;;;;;;;11.15;9.98;;;;;;;;;;5072305;28;20631;-76
2022/03/31 12:56:25;;;;;;;10.20;9.13;;;;;;;;;;5072409;28;20665;-76
2022/03/31 12:58:55;;;;;;;12.30;11.00;;;;;;;;;;5087165;28;20250;-77
2022/03/31 13:01:25;;;;;;;11.60;10.40;;;;;;;;;;5091379;28;20312;-76
2022/03/31 13:03:53;;;;;;;11.68;9.80;;;;;;;;;;5091554;28;20215;-76
2022/03/31 13:06:21;;;;;;;13.85;11.60;;;;;;;;;;5091738;28;20265;-76
2022/03/31 13:08:50;;;;;;;17.20;12.73;;;;;;;;;;5091670;28;20225;-77
2022/03/31 13:11:17;;;;;;;18.27;14.43;;;;;;;;;;5091217;28;20668;-77
2022/03/31 13:13:44;;;;;;;16.70;13.05;;;;;;;;;;5091405;28;20266;-77
2022/03/31 13:16:15;;;;;;;19.60;17.13;;;;;;;;;;5091195;28;20221;-76
2022/03/31 13:18:42;;;;;;;17.90;15.85;;;;;;;;;;5091104;28;20710;-76
2022/03/31 13:21:10;;;;;;;14.60;13.10;;;;;;;;;;5087718;28;20221;-76
2022/03/31 13:23:38;;;;;;;16.98;13.38;;;;;;;;;;5071587;28;20232;-76
2022/03/31 13:26:08;;;;;;;17.75;15.00;;;;;;;;;;5071911;28;20224;-76
2022/03/31 13:28:36;;;;;;;20.55;14.65;;;;;;;;;;5088909;28;20254;-78
2022/03/31 13:31:04;;;;;;;15.55;13.25;;;;;;;;;;5091145;28;20196;-77
2022/03/31 13:33:33;;;;;;;17.50;12.45;;;;;;;;;;5091110;28;20236;-77
2022/03/31 13:36:00;;;;;;;13.32;11.90;;;;;;;;;;5090856;28;20204;-77
2022/03/31 13:38:31;;;;;;;18.13;14.30;;;;;;;;;;5091658;28;20232;-78
2022/03/31 13:40:59;;;;;;;16.10;13.23;;;;;;;;;;5096036;28;20227;-77
2022/03/31 13:43:27;;;;;;;17.92;15.23;;;;;;;;;;5095051;28;20291;-78
2022/03/31 13:45:54;;;;;;;17.88;14.10;;;;;;;;;;5095828;28;20211;-77
2022/03/31 13:48:22;;;;;;;19.73;14.68;;;;;;;;;;5095857;28;20220;-77
2022/03/31 13:50:50;;;;;;;14.63;13.13;;;;;;;;;;5095774;28;20207;-77
2022/03/31 13:56:02;;;;;;;12.75;11.40;;;;;;;;;;5095771;28;20211;-78
2022/03/31 14:01:18;;;;;;;18.52;14.43;;;;;;;;;;5095760;28;20250;-78
2022/03/31 14:03:47;;;;;;;17.92;13.95;;;;;;;;;;5095740;28;20204;-78
2022/03/31 14:06:18;;;;;;;21.63;15.85;;;;;;;;;;5095455;28;20599;-78
2022/03/31 14:08:46;;;;;;;21.95;17.10;;;;;;;;;;5095915;28;20795;-78
2022/03/31 14:11:13;;;;;;;19.77;15.88;;;;;;;;;;5095393;28;20208;-78
2022/03/31 14:13:41;;;;;;;21.13;16.88;;;;;;;;;;5095610;28;20257;-78
2022/03/31 14:16:10;;;;;;;19.60;16.80;;;;;;;;;;5091558;28;20233;-78
2022/03/31 14:18:40;;;;;;;17.13;14.60;;;;;;;;;;5083326;28;20274;-78
2022/03/31 14:21:08;;;;;;;19.08;16.13;;;;;;;;;;5090477;28;20224;-78
2022/03/31 14:23:36;;;;;;;18.65;16.23;;;;;;;;;;5076003;28;20207;-77
2022/03/31 14:26:07;;;;;;;23.90;16.38;;;;;;;;;;5075186;28;20209;-77
2022/03/31 14:28:38;;;;;;;18.30;14.82;;;;;;;;;;5093397;28;20634;-78
2022/03/31 14:31:07;;;;;;;17.08;13.02;;;;;;;;;;5095380;28;20215;-78
2022/03/31 14:33:35;;;;;;;18.15;14.55;;;;;;;;;;5095551;28;20299;-79
2022/03/31 14:36:02;;;;;;;13.57;12.13;;;;;;;;;;5095610;28;20243;-78
2022/03/31 14:38:30;;;;;;;15.00;13.23;;;;;;;;;;5095666;28;20654;-78
2022/03/31 14:41:08;;;;;;;13.32;11.45;;;;;;;;;;5094927;28;20259;-78
2022/03/31 14:43:38;;;;;;;11.98;10.73;;;;;;;;;;5095074;28;20235;-79
2022/03/31 14:46:05;;;;;;;14.52;11.32;;;;;;;;;;5094993;28;20205;-78